• vieta
  • image
  • image
  • image

Šiandien

Trečiadienis, 22 Balandis 2015

Orų prognozė

Šiauliai 0 °C
   

Orų prognozė aviacijai

[source: ADDS]
METAR
EYSA 212250Z AUTO 33007KT 9999NDV NCD M00/M04 Q1021 =
TAF
TAF EYSA 212300Z 2200/2209 33008KT 9000 NSC =
SR / SS: 03:07 / 17:45 UTC (EYSA 2015-04-22)

Lankytojai

Mes turime 3 svečius online

tic logo lt